createdAt,value
2022-10-15T00:03:46.056Z,14.86
2022-10-15T00:08:48.804Z,14.88
2022-10-15T00:13:53.700Z,14.87
2022-10-15T00:18:57.825Z,14.87
2022-10-15T00:24:00.465Z,14.86
2022-10-15T00:29:05.242Z,14.89
2022-10-15T00:34:08.181Z,14.87
2022-10-15T00:39:11.723Z,14.86
2022-10-15T00:44:49.763Z,14.82
2022-10-15T00:49:57.017Z,14.79
2022-10-15T00:55:04.580Z,14.77
2022-10-15T01:00:11.645Z,14.74
2022-10-15T01:05:17.694Z,14.72
2022-10-15T01:10:21.470Z,14.73
2022-10-15T01:15:28.316Z,14.75
2022-10-15T01:21:00.353Z,14.77
2022-10-15T01:26:12.597Z,14.80
2022-10-15T01:31:22.939Z,14.81
2022-10-15T01:36:33.192Z,14.83
2022-10-15T01:41:41.036Z,14.81
2022-10-15T01:46:48.205Z,14.80
2022-10-15T01:51:58.590Z,14.77
2022-10-15T01:57:01.839Z,14.75
2022-10-15T02:02:05.870Z,14.74
2022-10-15T02:07:10.424Z,14.72
2022-10-15T02:12:23.537Z,14.68
2022-10-15T02:17:32.962Z,14.68
2022-10-15T02:22:39.924Z,14.69
2022-10-15T02:27:43.544Z,14.71
2022-10-15T02:32:52.256Z,14.69
2022-10-15T02:37:59.444Z,14.69
2022-10-15T02:43:05.463Z,14.73
2022-10-15T02:48:09.614Z,14.72
2022-10-15T02:53:12.376Z,14.75
2022-10-15T02:58:17.206Z,14.77
2022-10-15T03:03:21.761Z,14.77
2022-10-15T03:08:24.695Z,14.78
2022-10-15T03:13:27.501Z,14.77
2022-10-15T03:18:31.654Z,14.77
2022-10-15T03:23:34.592Z,14.78
2022-10-15T03:28:45.759Z,14.80
2022-10-15T03:33:56.796Z,14.79
2022-10-15T03:39:01.613Z,14.79
2022-10-15T03:44:05.597Z,14.78
2022-10-15T03:49:09.698Z,14.77
2022-10-15T03:54:12.422Z,14.77
2022-10-15T03:59:22.861Z,14.76
2022-10-15T04:04:34.057Z,14.75
2022-10-15T04:09:36.870Z,14.74
2022-10-15T04:15:01.916Z,14.75
2022-10-15T04:20:06.710Z,14.74
2022-10-15T04:25:10.223Z,14.77
2022-10-15T04:30:14.199Z,14.72
2022-10-15T04:35:27.701Z,14.73
2022-10-15T04:41:01.610Z,14.72
2022-10-15T04:46:11.767Z,14.73
2022-10-15T04:51:18.001Z,14.76
2022-10-15T04:56:40.891Z,14.77
2022-10-15T05:01:44.135Z,14.77
2022-10-15T05:06:48.451Z,14.78
2022-10-15T05:11:55.841Z,14.77
2022-10-15T05:16:58.577Z,14.77
2022-10-15T05:22:03.831Z,14.75
2022-10-15T05:27:08.012Z,14.76
2022-10-15T05:32:11.967Z,14.78
2022-10-15T05:37:17.129Z,14.79
2022-10-15T05:42:19.887Z,14.78
2022-10-15T05:47:29.074Z,14.77
2022-10-15T05:52:49.821Z,14.78
2022-10-15T05:58:03.523Z,14.80
2022-10-15T06:03:06.264Z,14.83
2022-10-15T06:08:10.242Z,14.81
2022-10-15T06:13:13.679Z,14.83
2022-10-15T06:18:16.392Z,14.85
2022-10-15T06:23:21.465Z,14.85
2022-10-15T06:28:24.196Z,14.88
2022-10-15T06:33:27.118Z,14.86
2022-10-15T06:38:31.136Z,14.87
2022-10-15T06:43:35.214Z,14.89
2022-10-15T06:48:38.428Z,14.91
2022-10-15T06:53:43.787Z,14.99
2022-10-15T06:58:46.432Z,15.05
2022-10-15T07:03:50.634Z,15.11
2022-10-15T07:08:54.585Z,15.13
2022-10-15T07:13:58.145Z,15.13
2022-10-15T07:19:00.731Z,15.11
2022-10-15T07:24:05.182Z,15.12
2022-10-15T07:29:09.518Z,15.13
2022-10-15T07:34:12.084Z,15.16
2022-10-15T07:39:17.902Z,15.19
2022-10-15T07:44:20.647Z,15.24
2022-10-15T07:49:23.273Z,15.28
2022-10-15T07:54:27.267Z,15.37
2022-10-15T07:59:30.030Z,15.48
2022-10-15T08:04:34.907Z,15.56
2022-10-15T08:09:38.996Z,15.65
2022-10-15T08:14:41.726Z,15.77
2022-10-15T08:19:44.524Z,15.87
2022-10-15T08:24:48.505Z,15.95
2022-10-15T08:29:51.107Z,15.97
2022-10-15T08:34:53.790Z,15.98
2022-10-15T08:39:57.718Z,15.97
2022-10-15T08:45:02.934Z,15.94
2022-10-15T08:50:17.726Z,15.94
2022-10-15T09:00:31.803Z,16.01
2022-10-15T09:05:39.883Z,16.06
2022-10-15T09:10:46.487Z,16.11
2022-10-15T09:15:53.362Z,16.22
2022-10-15T09:20:56.377Z,16.29
2022-10-15T09:26:04.550Z,16.32
2022-10-15T09:31:08.915Z,16.33
2022-10-15T09:36:20.973Z,16.43
2022-10-15T09:41:33.294Z,16.49
2022-10-15T09:46:35.906Z,16.56
2022-10-15T09:51:41.953Z,16.59
2022-10-15T09:56:48.242Z,16.68
2022-10-15T10:01:59.213Z,16.77
2022-10-15T10:07:04.916Z,16.77
2022-10-15T10:12:18.329Z,16.86
2022-10-15T10:17:22.736Z,16.82
2022-10-15T10:22:25.719Z,16.80
2022-10-15T10:27:31.428Z,16.85
2022-10-15T10:32:35.979Z,16.98
2022-10-15T10:37:42.775Z,17.24
2022-10-15T10:42:48.042Z,17.51
2022-10-15T10:47:53.890Z,17.59
2022-10-15T10:52:57.274Z,17.86
2022-10-15T10:58:05.382Z,17.93
2022-10-15T11:03:19.364Z,18.04
2022-10-15T11:08:28.016Z,18.29
2022-10-15T11:13:49.691Z,18.22
2022-10-15T11:19:18.894Z,18.55
2022-10-15T11:24:48.388Z,18.49
2022-10-15T11:29:57.551Z,18.26
2022-10-15T11:35:20.169Z,18.00
2022-10-15T11:40:36.358Z,17.96
2022-10-15T11:45:55.148Z,17.84
2022-10-15T11:51:01.338Z,18.12
2022-10-15T11:56:07.074Z,18.68
2022-10-15T12:01:13.867Z,18.50
2022-10-15T12:06:18.424Z,18.10
2022-10-15T12:11:28.307Z,17.89
2022-10-15T12:16:37.751Z,17.77
2022-10-15T12:21:41.956Z,17.75
2022-10-15T12:26:44.578Z,18.06
2022-10-15T12:31:50.630Z,18.89
2022-10-15T12:37:01.308Z,19.17
2022-10-15T12:42:04.090Z,19.93
2022-10-15T12:47:11.392Z,20.62
2022-10-15T12:52:51.578Z,21.08
2022-10-15T12:57:56.882Z,21.65
2022-10-15T13:03:10.926Z,22.05
2022-10-15T13:08:16.130Z,22.20
2022-10-15T13:13:21.440Z,20.93
2022-10-15T13:18:26.036Z,20.79
2022-10-15T13:23:30.934Z,20.03
2022-10-15T13:28:38.021Z,19.87
2022-10-15T13:33:42.743Z,19.55
2022-10-15T13:38:47.379Z,19.32
2022-10-15T13:43:53.777Z,19.18
2022-10-15T13:49:02.735Z,18.96
2022-10-15T13:54:10.049Z,18.85
2022-10-15T13:59:17.734Z,18.83
2022-10-15T14:04:23.371Z,18.82
2022-10-15T14:09:30.512Z,18.80
2022-10-15T14:14:35.100Z,18.69
2022-10-15T14:19:40.139Z,18.61
2022-10-15T14:24:42.835Z,18.53
2022-10-15T14:29:47.587Z,18.52
2022-10-15T14:34:52.694Z,18.46
2022-10-15T14:40:05.235Z,18.41
2022-10-15T14:45:19.585Z,18.35
2022-10-15T14:50:33.150Z,18.31
2022-10-15T14:55:38.783Z,18.26
2022-10-15T15:00:43.488Z,18.21
2022-10-15T15:05:49.385Z,18.13
2022-10-15T15:10:53.449Z,18.05
2022-10-15T15:15:56.954Z,18.05
2022-10-15T15:21:03.828Z,18.03
2022-10-15T15:26:06.719Z,18.05
2022-10-15T15:31:15.943Z,18.08
2022-10-15T15:36:22.602Z,18.08
2022-10-15T15:41:26.652Z,18.08
2022-10-15T15:46:29.295Z,18.08
2022-10-15T15:51:33.341Z,18.05
2022-10-15T15:56:36.058Z,18.02
2022-10-15T16:01:38.810Z,18.00
2022-10-15T16:06:43.339Z,17.97
2022-10-15T16:11:46.181Z,17.94
2022-10-15T16:16:48.839Z,17.90
2022-10-15T16:21:52.882Z,17.91
2022-10-15T16:26:55.511Z,17.87
2022-10-15T16:31:58.214Z,17.83
2022-10-15T16:37:02.492Z,17.78
2022-10-15T16:42:05.642Z,17.74
2022-10-15T16:47:08.370Z,17.68
2022-10-15T16:52:12.518Z,17.64
2022-10-15T16:57:15.228Z,17.59
2022-10-15T17:02:17.839Z,17.55
2022-10-15T17:07:22.137Z,17.50
2022-10-15T17:12:25.246Z,17.47
2022-10-15T17:17:28.087Z,17.43
2022-10-15T17:22:32.149Z,17.40
2022-10-15T17:27:35.684Z,17.39
2022-10-15T17:32:38.323Z,17.38
2022-10-15T17:37:42.290Z,17.32
2022-10-15T17:42:44.963Z,17.28
2022-10-15T17:47:47.658Z,17.25
2022-10-15T17:52:52.268Z,17.21
2022-10-15T17:57:54.924Z,17.17
2022-10-15T18:02:58.772Z,17.14
2022-10-15T18:08:03.902Z,17.11
2022-10-15T18:13:06.966Z,17.06
2022-10-15T18:18:09.562Z,16.99
2022-10-15T18:23:13.741Z,16.95
2022-10-15T18:28:16.687Z,16.90
2022-10-15T18:33:19.348Z,16.88
2022-10-15T18:38:23.391Z,16.87
2022-10-15T18:43:26.034Z,16.87
2022-10-15T18:48:32.768Z,16.85
2022-10-15T18:53:37.657Z,16.84
2022-10-15T18:58:42.854Z,16.83
2022-10-15T19:03:45.467Z,16.84
2022-10-15T19:08:50.021Z,16.80
2022-10-15T19:13:52.633Z,16.80
2022-10-15T19:18:55.382Z,16.79
2022-10-15T19:23:59.830Z,16.77
2022-10-15T19:29:03.260Z,16.76
2022-10-15T19:34:06.590Z,16.74
2022-10-15T19:39:13.167Z,16.74
2022-10-15T19:44:17.266Z,16.74
2022-10-15T19:49:20.502Z,16.77
2022-10-15T19:59:28.180Z,16.77
2022-10-15T20:04:30.905Z,16.76
2022-10-15T20:09:34.906Z,16.77
2022-10-15T20:14:37.653Z,16.76
2022-10-15T20:19:40.297Z,16.74
2022-10-15T20:24:44.299Z,16.73
2022-10-15T20:29:47.000Z,16.68
2022-10-15T20:34:49.925Z,16.67
2022-10-15T20:39:54.103Z,16.64
2022-10-15T20:44:56.845Z,16.62
2022-10-15T20:49:59.496Z,16.62
2022-10-15T20:55:04.127Z,16.62
2022-10-15T21:00:08.990Z,16.59
2022-10-15T21:05:11.619Z,16.58
2022-10-15T21:10:15.692Z,16.54
2022-10-15T21:15:18.560Z,16.50
2022-10-15T21:20:21.313Z,16.49
2022-10-15T21:25:25.333Z,16.44
2022-10-15T21:30:28.351Z,16.38
2022-10-15T21:35:31.020Z,16.31
2022-10-15T21:40:34.992Z,16.29
2022-10-15T21:45:37.762Z,16.31
2022-10-15T21:50:40.423Z,16.29
2022-10-15T21:55:53.303Z,16.29
2022-10-15T22:00:55.906Z,16.25
2022-10-15T22:05:59.588Z,16.23
2022-10-15T22:11:11.259Z,16.20
2022-10-15T22:16:14.970Z,16.18
2022-10-15T22:21:19.987Z,16.17
2022-10-15T22:26:25.413Z,16.14
2022-10-15T22:31:28.438Z,16.12
2022-10-15T22:36:31.909Z,16.12
2022-10-15T22:41:39.599Z,16.11
2022-10-15T22:46:45.993Z,16.08
2022-10-15T22:51:48.938Z,16.01
2022-10-15T22:56:53.105Z,16.00
2022-10-15T23:01:55.683Z,15.99
2022-10-15T23:06:58.283Z,16.01
2022-10-15T23:12:02.262Z,16.04
2022-10-15T23:17:04.875Z,16.09
2022-10-15T23:22:09.811Z,16.10
2022-10-15T23:27:13.950Z,16.14
2022-10-15T23:32:16.547Z,16.20
2022-10-15T23:37:19.512Z,16.24
2022-10-15T23:42:23.893Z,16.30
2022-10-15T23:47:26.898Z,16.32
2022-10-15T23:52:29.819Z,16.30
2022-10-15T23:57:33.744Z,16.28
